Time;durP1;ratioP1;P1;durP2;ratioP2;P2;SDS_P1;SDS_P2;PMS_P1;PMS_P2;Temp;Humidity;BMP_temperature;BMP_pressure;BME280_temperature;BME280_humidity;BME280_pressure;Samples;Min_cycle;Max_cycle;Signal;HPM_P1;HPM_P2
2023/01/07 00:01:11;;;;;;;75.82;22.38;;;;;;;8.65;100.00;95175.75;5038650;28;20442;-82
2023/01/07 00:03:37;;;;;;;58.85;21.33;;;;;;;8.87;100.00;95174.03;5022203;28;20036;-82
2023/01/07 00:06:06;;;;;;;55.40;21.63;;;;;;;9.14;100.00;95178.66;5038563;28;20025;-82
2023/01/07 00:08:33;;;;;;;129.05;23.88;;;;;;;9.04;100.00;95176.66;5022367;28;20021;-82
2023/01/07 00:11:08;;;;;;;86.85;22.05;;;;;;;8.90;100.00;95168.34;5038567;28;20021;-82
2023/01/07 00:13:34;;;;;;;50.60;21.30;;;;;;;8.88;100.00;95169.59;5038590;28;20043;-82
2023/01/07 00:16:04;;;;;;;59.60;20.27;;;;;;;9.05;100.00;95167.03;5038493;28;20031;-82
2023/01/07 00:18:30;;;;;;;77.38;21.30;;;;;;;8.65;100.00;95163.47;5038695;28;20308;-83
2023/01/07 00:20:56;;;;;;;52.78;19.98;;;;;;;9.08;100.00;95166.53;5038347;28;20120;-82
2023/01/07 00:23:23;;;;;;;64.78;22.00;;;;;;;9.24;100.00;95166.78;5056239;28;20025;-82
2023/01/07 00:25:49;;;;;;;52.13;20.27;;;;;;;9.00;100.00;95166.91;5022121;28;20346;-82
2023/01/07 00:28:15;;;;;;;48.88;20.20;;;;;;;8.35;100.00;95172.31;5038462;28;20438;-82
2023/01/07 00:30:40;;;;;;;56.22;20.58;;;;;;;8.55;100.00;95169.31;5038324;28;20040;-82
2023/01/07 00:33:06;;;;;;;46.80;18.20;;;;;;;8.03;100.00;95164.94;5022068;28;20033;-82
2023/01/07 00:35:33;;;;;;;45.30;19.40;;;;;;;8.53;100.00;95168.75;5038352;28;20093;-82
2023/01/07 00:37:58;;;;;;;57.92;20.63;;;;;;;8.47;100.00;95173.06;5038358;28;20025;-82
2023/01/07 00:40:24;;;;;;;152.52;24.02;;;;;;;8.33;100.00;95172.56;5038309;28;20032;-82
2023/01/07 00:43:03;;;;;;;49.10;20.20;;;;;;;8.73;100.00;95170.13;5021681;28;20076;-82
2023/01/07 00:45:31;;;;;;;105.20;20.13;;;;;;;8.73;100.00;95173.56;5040343;28;20098;-82
2023/01/07 00:48:00;;;;;;;104.88;20.33;;;;;;;8.36;100.00;95168.69;5021804;28;20746;-82
2023/01/07 00:50:29;;;;;;;51.15;18.42;;;;;;;8.12;100.00;95173.19;5056042;28;20040;-82
2023/01/07 00:52:55;;;;;;;98.10;20.67;;;;;;;8.11;100.00;95179.44;5021980;28;20480;-82
2023/01/07 00:55:21;;;;;;;40.92;19.23;;;;;;;8.44;100.00;95177.97;5038169;28;20107;-82
2023/01/07 00:57:46;;;;;;;47.95;18.38;;;;;;;8.27;100.00;95180.53;5021470;28;20033;-82
2023/01/07 01:00:14;;;;;;;41.35;17.88;;;;;;;8.84;100.00;95176.34;5021647;28;20166;-82
2023/01/07 01:02:40;;;;;;;41.80;17.45;;;;;;;8.86;100.00;95180.28;5040989;28;20361;-82
2023/01/07 01:05:07;;;;;;;36.67;16.60;;;;;;;9.11;100.00;95181.75;5041678;28;20029;-82
2023/01/07 01:07:33;;;;;;;49.95;18.15;;;;;;;8.18;100.00;95172.28;5041840;28;20435;-82
2023/01/07 01:10:00;;;;;;;40.50;16.60;;;;;;;8.53;100.00;95173.19;5041564;28;20029;-82
2023/01/07 01:12:26;;;;;;;41.20;16.63;;;;;;;8.69;100.00;95177.66;5041558;28;20189;-82
2023/01/07 01:14:51;;;;;;;43.83;16.58;;;;;;;8.80;100.00;95170.78;5041486;28;20108;-82
2023/01/07 01:17:17;;;;;;;47.05;17.05;;;;;;;8.37;100.00;95177.31;5025072;28;20118;-82
2023/01/07 01:19:42;;;;;;;36.90;16.25;;;;;;;8.21;100.00;95169.97;5024858;28;20032;-82
2023/01/07 01:22:08;;;;;;;41.05;16.05;;;;;;;8.65;100.00;95162.69;5059078;28;20078;-83
2023/01/07 01:24:33;;;;;;;42.00;16.13;;;;;;;8.59;100.00;95164.41;5041371;28;20040;-82
2023/01/07 01:26:59;;;;;;;33.40;14.77;;;;;;;8.88;100.00;95165.16;5041171;28;20088;-82
2023/01/07 01:29:24;;;;;;;33.20;15.73;;;;;;;9.18;100.00;95169.31;5041045;28;20037;-82
2023/01/07 01:31:51;;;;;;;39.67;16.05;;;;;;;9.16;100.00;95165.34;5042370;28;20049;-82
2023/01/07 01:34:16;;;;;;;43.88;16.55;;;;;;;8.67;100.00;95158.03;5058898;28;20103;-82
2023/01/07 01:36:42;;;;;;;67.63;17.27;;;;;;;8.65;100.00;95163.47;5040940;28;20039;-82
2023/01/07 01:39:07;;;;;;;36.50;14.32;;;;;;;8.83;100.00;95156.47;5041091;28;20037;-82
2023/01/07 01:41:33;;;;;;;40.50;16.15;;;;;;;8.93;100.00;95156.63;5024702;28;20393;-83
2023/01/07 01:43:59;;;;;;;34.67;15.02;;;;;;;8.72;100.00;95158.09;5024646;28;20029;-82
2023/01/07 01:46:30;;;;;;;34.30;15.48;;;;;;;9.37;100.00;95156.00;5040804;28;20032;-82
2023/01/07 01:48:59;;;;;;;38.60;15.70;;;;;;;8.93;100.00;95151.38;5058661;28;20044;-82
2023/01/07 01:51:26;;;;;;;36.42;14.85;;;;;;;8.63;100.00;95148.06;5040930;28;20055;-82
2023/01/07 01:53:53;;;;;;;35.97;13.65;;;;;;;8.94;100.00;95142.53;5024066;28;20029;-82
2023/01/07 01:56:22;;;;;;;27.08;12.90;;;;;;;9.27;100.00;95145.38;5024665;28;20048;-82
2023/01/07 01:58:52;;;;;;;29.58;14.15;;;;;;;8.85;100.00;95154.41;5040711;28;20091;-82
2023/01/07 02:01:17;;;;;;;34.50;15.23;;;;;;;8.49;100.00;95144.88;5024375;28;20037;-82
2023/01/07 02:03:45;;;;;;;33.92;14.93;;;;;;;8.81;100.00;95143.63;5040482;28;20178;-82
2023/01/07 02:06:22;;;;;;;32.33;14.52;;;;;;;8.80;100.00;95147.28;5024221;28;20334;-82
2023/01/07 02:08:47;;;;;;;43.85;14.27;;;;;;;8.25;100.00;95141.59;5024242;28;20346;-82
2023/01/07 02:11:31;;;;;;;32.40;14.10;;;;;;;9.00;100.00;95143.41;5040368;28;20025;-82
2023/01/07 02:14:11;;;;;;;34.45;13.88;;;;;;;8.98;100.00;95137.63;5058176;28;20461;-82
2023/01/07 02:16:55;;;;;;;33.15;13.93;;;;;;;8.26;100.00;95140.56;5023636;28;20055;-82
2023/01/07 02:19:39;;;;;;;31.67;13.70;;;;;;;8.54;100.00;95133.78;5024040;28;20051;-82
2023/01/07 02:22:05;;;;;;;34.45;14.32;;;;;;;8.95;100.00;95122.41;5057956;28;20426;-83
2023/01/07 02:24:33;;;;;;;31.20;14.23;;;;;;;9.12;100.00;95130.25;5057978;28;20081;-83
2023/01/07 02:27:37;;;;;;;39.20;13.88;;;;;;;8.37;100.00;95131.09;5039843;28;20028;-82
2023/01/07 02:30:23;;;;;;;29.48;12.57;;;;;;;8.52;100.00;95119.34;5057069;28;20056;-83
2023/01/07 02:33:07;;;;;;;32.10;12.63;;;;;;;8.20;100.00;95112.78;5040107;28;20032;-82
2023/01/07 02:35:59;;;;;;;29.63;12.77;;;;;;;8.39;100.00;95109.97;5040357;28;20060;-82
2023/01/07 02:38:55;;;;;;;37.95;12.18;;;;;;;8.45;100.00;95116.88;5015896;28;20037;-83
2023/01/07 02:41:39;;;;;;;29.50;13.35;;;;;;;9.26;100.00;95118.44;5039881;28;20133;-82
2023/01/07 02:44:15;;;;;;;27.85;12.50;;;;;;;9.51;100.00;95114.56;5057581;28;20036;-82
2023/01/07 02:47:01;;;;;;;25.63;12.07;;;;;;;9.18;100.00;95105.75;5057444;28;20426;-82
2023/01/07 02:49:26;;;;;;;24.17;11.80;;;;;;;8.59;100.00;95106.97;5039797;28;20071;-82
2023/01/07 02:51:51;;;;;;;27.80;12.18;;;;;;;8.55;100.00;95101.41;5039533;28;20025;-82
2023/01/07 02:54:23;;;;;;;26.65;11.82;;;;;;;9.11;100.00;95103.31;5023367;28;20116;-82
2023/01/07 02:56:49;;;;;;;27.92;12.07;;;;;;;9.15;100.00;95101.78;5023221;28;20127;-82
2023/01/07 02:59:17;;;;;;;21.20;10.93;;;;;;;9.09;100.00;95101.97;5057282;28;20076;-82
2023/01/07 03:01:45;;;;;;;28.13;11.30;;;;;;;8.82;100.00;95105.22;5039323;28;20033;-82
2023/01/07 03:04:30;;;;;;;24.15;11.20;;;;;;;8.74;100.00;95101.97;5039563;28;20076;-82
2023/01/07 03:07:02;;;;;;;25.33;10.55;;;;;;;8.59;100.00;95105.13;5023036;28;20028;-82
2023/01/07 03:09:36;;;;;;;19.05;10.13;;;;;;;9.17;100.00;95099.72;5039538;28;20029;-82
2023/01/07 03:12:23;;;;;;;616.85;39.45;;;;;;;8.89;100.00;95095.41;5039341;28;20025;-82
2023/01/07 03:14:58;;;;;;;31.30;10.48;;;;;;;9.03;100.00;95093.25;5022976;28;20438;-82
2023/01/07 03:17:29;;;;;;;443.83;25.35;;;;;;;9.09;100.00;95091.50;5039227;28;20071;-82
2023/01/07 03:19:57;;;;;;;26.08;11.00;;;;;;;8.56;100.00;95089.16;5039285;28;20051;-83
2023/01/07 03:22:24;;;;;;;86.13;13.63;;;;;;;8.82;100.00;95090.34;5023064;28;20037;-83
2023/01/07 03:24:50;;;;;;;42.35;12.02;;;;;;;8.39;100.00;95094.31;5028499;28;20033;-83
2023/01/07 03:27:19;;;;;;;55.10;12.68;;;;;;;8.28;100.00;95088.91;4990261;28;20478;-83
2023/01/07 03:29:47;;;;;;;83.60;12.68;;;;;;;8.48;100.00;95088.47;4984023;28;20359;-83
2023/01/07 03:32:17;;;;;;;42.53;12.15;;;;;;;9.12;100.00;95086.59;5001760;28;20379;-82
2023/01/07 03:34:42;;;;;;;100.00;14.00;;;;;;;9.19;100.00;95087.22;5017298;28;20029;-83
2023/01/07 03:37:10;;;;;;;442.60;27.13;;;;;;;8.88;100.00;95081.53;4983144;28;20439;-83
2023/01/07 03:39:37;;;;;;;176.88;18.45;;;;;;;8.68;100.00;95082.03;4983563;28;20034;-83
2023/01/07 03:44:52;;;;;;;239.75;17.88;;;;;;;9.07;100.00;95076.06;5041534;28;20063;-83
2023/01/07 03:47:17;;;;;;;123.75;14.13;;;;;;;8.93;100.00;95080.81;5038763;28;20036;-83
2023/01/07 03:49:43;;;;;;;29.58;9.70;;;;;;;8.76;100.00;95078.25;5022539;28;20040;-82
2023/01/07 03:52:08;;;;;;;35.58;10.57;;;;;;;9.15;100.00;95083.50;5022427;28;20029;-83
2023/01/07 03:54:34;;;;;;;144.55;12.10;;;;;;;8.96;100.00;95069.13;5018781;28;20136;-82
2023/01/07 03:56:59;;;;;;;24.88;9.02;;;;;;;9.21;100.00;95073.13;4999379;28;20040;-83
2023/01/07 03:59:25;;;;;;;33.08;8.98;;;;;;;9.09;100.00;95081.06;4999202;28;20113;-83
2023/01/07 04:01:53;;;;;;;39.95;8.57;;;;;;;9.12;100.00;95076.13;4999224;28;20034;-83
2023/01/07 04:04:19;;;;;;;270.80;19.98;;;;;;;8.17;100.00;95076.69;4999256;28;20053;-83
2023/01/07 04:06:45;;;;;;;49.00;9.55;;;;;;;8.66;100.00;95078.84;4999116;28;20087;-83
2023/01/07 04:09:11;;;;;;;72.15;9.80;;;;;;;9.01;100.00;95074.41;4999173;28;20034;-83
2023/01/07 04:11:36;;;;;;;70.55;9.90;;;;;;;8.98;100.00;95087.97;4999165;28;20030;-82
2023/01/07 04:14:02;;;;;;;21.45;8.18;;;;;;;8.78;100.00;95078.78;4999370;28;20037;-83
2023/01/07 04:16:27;;;;;;;131.20;12.23;;;;;;;8.64;100.00;95083.53;5016576;28;20084;-82
2023/01/07 04:18:53;;;;;;;73.57;8.90;;;;;;;8.70;100.00;95084.41;4998953;28;20040;-83
2023/01/07 04:21:18;;;;;;;688.35;36.17;;;;;;;8.17;100.00;95087.13;4983029;28;20037;-82
2023/01/07 04:23:44;;;;;;;96.75;9.05;;;;;;;8.76;100.00;95081.63;4999096;28;20041;-83
2023/01/07 04:26:09;;;;;;;37.13;7.95;;;;;;;8.93;100.00;95082.66;5015482;28;20064;-83
2023/01/07 04:28:34;;;;;;;16.38;8.23;;;;;;;9.03;100.00;95078.38;4999016;28;20034;-83
2023/01/07 04:31:00;;;;;;;29.23;8.13;;;;;;;8.98;100.00;95086.16;4998914;28;20038;-83
2023/01/07 04:33:25;;;;;;;998.08;56.15;;;;;;;7.88;100.00;95089.72;4999022;28;20470;-83
2023/01/07 04:35:51;;;;;;;623.95;30.85;;;;;;;8.12;100.00;95085.25;4983211;28;20065;-83
2023/01/07 04:38:16;;;;;;;473.63;24.98;;;;;;;7.75;100.00;95085.59;5002715;28;20034;-82
2023/01/07 04:40:42;;;;;;;121.30;13.13;;;;;;;8.21;100.00;95089.03;5002713;28;20034;-83
2023/01/07 04:43:08;;;;;;;50.33;8.02;;;;;;;8.76;100.00;95089.47;4986601;28;20034;-83
2023/01/07 04:45:33;;;;;;;40.50;6.93;;;;;;;8.85;100.00;95086.47;4986568;28;20049;-82
2023/01/07 04:47:59;;;;;;;567.55;29.92;;;;;;;8.41;100.00;95087.03;5002667;28;20030;-83
2023/01/07 04:50:24;;;;;;;702.20;37.70;;;;;;;7.50;100.00;95082.25;5002540;28;20345;-83
2023/01/07 04:52:50;;;;;;;628.30;35.35;;;;;;;7.25;100.00;95081.69;5019943;28;20030;-83
2023/01/07 04:55:15;;;;;;;912.92;55.97;;;;;;;6.79;100.00;95084.88;4986361;28;20034;-83
2023/01/07 04:57:41;;;;;;;109.47;10.68;;;;;;;7.74;100.00;95084.78;5002318;28;20037;-83
2023/01/07 05:00:07;;;;;;;41.15;9.23;;;;;;;8.19;100.00;95079.88;4986268;28;20057;-83
2023/01/07 05:02:33;;;;;;;198.88;15.75;;;;;;;7.70;100.00;95082.88;4986008;28;20354;-83
2023/01/07 05:05:00;;;;;;;208.68;13.82;;;;;;;7.82;100.00;95086.25;4986527;28;20034;-82
2023/01/07 05:07:26;;;;;;;432.50;20.27;;;;;;;7.02;100.00;95078.06;4986054;28;20140;-83
2023/01/07 05:09:52;;;;;;;266.02;18.67;;;;;;;7.31;100.00;95083.38;5002416;28;20116;-83
2023/01/07 05:12:17;;;;;;;308.58;18.40;;;;;;;7.04;100.00;95083.88;4986078;28;20084;-83
2023/01/07 05:14:43;;;;;;;209.45;16.08;;;;;;;7.14;100.00;95076.25;5002120;28;20034;-82
2023/01/07 05:17:08;;;;;;;160.57;10.82;;;;;;;7.34;100.00;95080.34;5001954;28;20079;-82
2023/01/07 05:19:34;;;;;;;140.95;11.38;;;;;;;7.44;100.00;95082.38;5018679;28;20041;-83
2023/01/07 05:21:59;;;;;;;296.10;17.30;;;;;;;7.10;100.00;95082.16;5018464;28;20034;-83
2023/01/07 05:24:25;;;;;;;315.45;16.98;;;;;;;7.11;100.00;95087.16;4986224;28;20061;-82
2023/01/07 05:26:50;;;;;;;129.70;11.63;;;;;;;7.20;100.00;95088.41;5001790;28;20034;-82
2023/01/07 05:29:15;;;;;;;116.22;10.57;;;;;;;7.14;100.00;95078.88;5023047;28;20033;-83
2023/01/07 05:31:41;;;;;;;167.43;11.88;;;;;;;6.92;100.00;95084.66;4996398;28;20029;-83
2023/01/07 05:34:06;;;;;;;238.73;14.63;;;;;;;6.93;100.00;95083.63;5001769;28;20059;-82
2023/01/07 05:36:32;;;;;;;102.93;12.63;;;;;;;7.56;100.00;95090.16;5019073;28;20034;-82
2023/01/07 05:38:58;;;;;;;130.05;11.43;;;;;;;7.08;100.00;95085.78;5001687;28;20045;-83
2023/01/07 05:41:23;;;;;;;100.72;12.13;;;;;;;7.38;100.00;95085.88;5018052;28;20408;-82
2023/01/07 05:43:48;;;;;;;144.15;12.98;;;;;;;7.20;100.00;95085.00;5001570;28;20037;-82
2023/01/07 05:46:14;;;;;;;396.55;21.60;;;;;;;7.06;100.00;95092.25;5001384;28;20064;-83
2023/01/07 05:48:40;;;;;;;244.10;16.00;;;;;;;6.88;100.00;95090.53;5018581;28;20037;-83
2023/01/07 05:51:05;;;;;;;175.25;13.73;;;;;;;7.06;100.00;95087.81;5001434;28;20041;-83
2023/01/07 05:53:31;;;;;;;207.80;13.57;;;;;;;7.59;100.00;95087.88;5001688;28;20034;-83
2023/01/07 05:55:57;;;;;;;174.95;13.50;;;;;;;7.85;100.00;95090.22;5001277;28;20359;-83
2023/01/07 05:58:23;;;;;;;314.75;18.02;;;;;;;7.84;100.00;95091.22;5001319;28;20053;-83
2023/01/07 06:00:49;;;;;;;205.80;15.73;;;;;;;7.35;100.00;95090.53;5001244;28;20069;-83
2023/01/07 06:03:14;;;;;;;13.82;7.13;;;;;;;8.25;100.00;95088.56;5001138;28;20044;-83
2023/01/07 06:05:40;;;;;;;229.77;15.02;;;;;;;7.71;100.00;95098.28;4984794;28;20041;-83
2023/01/07 06:08:05;;;;;;;33.17;7.90;;;;;;;8.09;100.00;95092.75;5001173;28;20423;-83
2023/01/07 06:10:31;;;;;;;349.05;19.27;;;;;;;7.71;100.00;95097.50;5001055;28;20030;-83
2023/01/07 06:12:56;;;;;;;88.03;10.55;;;;;;;7.82;100.00;95096.69;5001046;28;20041;-83
2023/01/07 06:15:21;;;;;;;241.32;18.65;;;;;;;7.35;100.00;95092.34;5000910;28;20034;-83
2023/01/07 06:17:47;;;;;;;31.30;7.70;;;;;;;8.39;100.00;95086.47;5000837;28;20056;-83
2023/01/07 06:20:13;;;;;;;368.92;19.00;;;;;;;8.24;100.00;95093.00;5001128;28;20091;-83
2023/01/07 06:22:41;;;;;;;344.35;24.77;;;;;;;7.88;100.00;95090.53;5000909;28;20061;-83
2023/01/07 06:25:06;;;;;;;312.45;16.75;;;;;;;7.61;100.00;95100.72;5018215;28;20121;-83
2023/01/07 06:27:32;;;;;;;323.58;20.48;;;;;;;7.20;100.00;95095.41;5018406;28;20124;-83
2023/01/07 06:29:57;;;;;;;110.22;12.27;;;;;;;7.66;100.00;95094.78;5000853;28;20033;-82
2023/01/07 06:32:23;;;;;;;429.45;24.90;;;;;;;8.03;100.00;95103.09;5018165;28;20095;-83
2023/01/07 06:34:49;;;;;;;412.48;23.40;;;;;;;7.55;100.00;95101.63;4984570;28;20432;-83
2023/01/07 06:37:16;;;;;;;174.07;14.82;;;;;;;7.81;100.00;95100.31;5000460;28;20037;-83
2023/01/07 06:39:42;;;;;;;179.55;13.07;;;;;;;7.63;100.00;95099.44;5000759;28;20025;-83
2023/01/07 06:42:07;;;;;;;160.30;10.43;;;;;;;7.74;100.00;95100.44;5000429;28;20432;-83
2023/01/07 06:44:33;;;;;;;285.00;14.15;;;;;;;7.57;100.00;95092.56;5000397;28;20439;-83
2023/01/07 06:46:58;;;;;;;28.17;7.60;;;;;;;8.09;100.00;95095.34;5000351;28;20038;-83
2023/01/07 06:49:24;;;;;;;128.82;10.95;;;;;;;7.74;100.00;95099.66;5000449;28;20041;-83
2023/01/07 06:51:49;;;;;;;45.85;7.13;;;;;;;7.85;100.00;95095.41;5017798;28;20029;-83
2023/01/07 06:54:15;;;;;;;274.58;14.45;;;;;;;7.38;100.00;95096.31;5026943;28;20127;-83
2023/01/07 06:56:40;;;;;;;315.40;18.45;;;;;;;7.45;100.00;95097.00;5057178;28;20055;-83
2023/01/07 06:59:05;;;;;;;250.63;15.02;;;;;;;7.53;100.00;95094.03;5022562;28;20434;-83
2023/01/07 07:01:31;;;;;;;433.25;22.38;;;;;;;7.39;100.00;95098.69;5039513;28;20033;-82
2023/01/07 07:03:56;;;;;;;315.75;16.35;;;;;;;7.56;100.00;95098.78;5039445;28;20044;-83
2023/01/07 07:06:22;;;;;;;582.40;35.08;;;;;;;7.30;100.00;95095.63;5057078;28;20032;-83
2023/01/07 07:08:47;;;;;;;535.72;30.55;;;;;;;7.14;100.00;95096.34;5019337;28;20179;-84
2023/01/07 07:11:13;;;;;;;160.85;11.35;;;;;;;7.61;100.00;95095.50;5019521;28;20101;-84
2023/01/07 07:13:38;;;;;;;652.88;30.08;;;;;;;7.41;100.00;95088.81;5037182;28;20124;-84
2023/01/07 07:16:04;;;;;;;366.60;20.10;;;;;;;7.25;100.00;95092.13;5003228;28;20458;-84
2023/01/07 07:18:29;;;;;;;427.05;24.00;;;;;;;6.91;100.00;95087.47;5019569;28;20033;-84
2023/01/07 07:20:55;;;;;;;445.45;23.05;;;;;;;6.60;100.00;95086.78;5019391;28;20033;-84
2023/01/07 07:23:20;;;;;;;193.30;11.35;;;;;;;7.32;100.00;95083.16;5036935;28;20033;-82
2023/01/07 07:25:46;;;;;;;400.63;20.40;;;;;;;7.03;100.00;95082.25;5036897;28;20033;-82
2023/01/07 07:28:11;;;;;;;112.30;10.75;;;;;;;7.73;100.00;95085.03;5019379;28;20033;-82
2023/01/07 07:30:37;;;;;;;619.83;34.25;;;;;;;7.49;100.00;95088.47;5002940;28;20037;-82
2023/01/07 07:33:03;;;;;;;55.03;6.75;;;;;;;8.12;100.00;95079.22;5019285;28;20434;-82
2023/01/07 07:35:30;;;;;;;101.90;7.93;;;;;;;8.24;100.00;95084.38;5002676;28;20041;-82
2023/01/07 07:37:55;;;;;;;302.17;18.27;;;;;;;8.26;100.00;95075.28;5019072;28;20046;-81
2023/01/07 07:40:21;;;;;;;227.57;14.60;;;;;;;7.61;100.00;95078.03;5019395;28;20354;-81
2023/01/07 07:42:46;;;;;;;675.92;35.22;;;;;;;7.20;100.00;95075.38;5019006;28;20400;-81
2023/01/07 07:45:14;;;;;;;360.52;23.70;;;;;;;7.57;100.00;95073.50;5036701;28;20029;-81
2023/01/07 07:47:40;;;;;;;14.68;4.85;;;;;;;8.31;100.00;95072.75;5036585;28;20141;-81
2023/01/07 07:50:06;;;;;;;161.57;9.95;;;;;;;8.39;100.00;95070.81;5002872;28;20048;-81
2023/01/07 07:52:32;;;;;;;50.40;6.68;;;;;;;8.42;100.00;95070.34;5002739;28;20029;-81
2023/01/07 07:54:57;;;;;;;95.07;5.90;;;;;;;8.35;100.00;95073.09;5018983;28;20036;-81
2023/01/07 07:57:22;;;;;;;13.57;3.60;;;;;;;8.58;100.00;95069.59;5002442;28;20033;-81
2023/01/07 07:59:48;;;;;;;54.63;5.45;;;;;;;8.41;100.00;95076.59;5002747;28;20087;-81
2023/01/07 08:02:14;;;;;;;114.43;6.28;;;;;;;8.57;100.00;95081.06;5018863;28;20082;-81
2023/01/07 08:04:40;;;;;;;365.15;20.08;;;;;;;7.76;100.00;95071.53;5002691;28;20030;-81
2023/01/07 08:07:05;;;;;;;422.60;17.40;;;;;;;7.50;100.00;95074.41;5002634;28;20055;-81
2023/01/07 08:09:31;;;;;;;391.40;17.00;;;;;;;8.06;100.00;95079.13;5002769;28;20483;-83
2023/01/07 08:11:56;;;;;;;68.25;5.72;;;;;;;8.54;100.00;95076.31;5022960;28;20040;-83
2023/01/07 08:14:26;;;;;;;551.72;28.90;;;;;;;8.38;100.00;95071.84;5022730;28;20029;-83
2023/01/07 08:16:51;;;;;;;566.75;30.23;;;;;;;7.85;100.00;95077.16;5015143;28;20025;-83
2023/01/07 08:19:16;;;;;;;413.38;18.77;;;;;;;7.68;100.00;95072.69;4999047;28;20030;-84
2023/01/07 08:21:42;;;;;;;322.50;18.73;;;;;;;7.81;100.00;95084.66;5018187;28;20037;-83
2023/01/07 08:24:08;;;;;;;70.35;6.80;;;;;;;8.28;100.00;95070.63;5004630;28;20435;-83
2023/01/07 08:26:33;;;;;;;428.42;20.45;;;;;;;8.32;100.00;95070.97;5002903;28;20036;-82
2023/01/07 08:28:58;;;;;;;315.33;18.60;;;;;;;8.50;100.00;95075.22;5002971;28;20030;-83
2023/01/07 08:31:24;;;;;;;234.68;11.00;;;;;;;8.75;100.00;95068.78;5002779;28;20128;-82
2023/01/07 08:33:49;;;;;;;359.70;17.55;;;;;;;8.34;100.00;95066.28;4987462;28;20482;-82
2023/01/07 08:36:15;;;;;;;160.52;10.05;;;;;;;8.47;100.00;95060.00;5002736;28;20036;-82
2023/01/07 08:38:40;;;;;;;258.60;14.35;;;;;;;8.75;100.00;95066.97;5002796;28;20065;-82
2023/01/07 08:41:05;;;;;;;199.70;16.13;;;;;;;9.45;100.00;95065.84;5002680;28;20435;-82
2023/01/07 08:43:32;;;;;;;135.02;10.80;;;;;;;9.16;100.00;95071.22;5002840;28;20029;-82
2023/01/07 08:45:57;;;;;;;40.92;5.15;;;;;;;9.23;100.00;95069.22;4986838;28;20029;-82
2023/01/07 08:48:23;;;;;;;4.78;3.05;;;;;;;9.72;100.00;95068.53;4986492;28;20037;-82
2023/01/07 08:50:51;;;;;;;287.23;15.98;;;;;;;8.51;100.00;95070.75;5002573;28;20030;-83
2023/01/07 08:53:17;;;;;;;293.50;14.15;;;;;;;8.49;100.00;95068.38;4986448;28;20037;-84
2023/01/07 08:55:43;;;;;;;219.98;11.10;;;;;;;8.98;100.00;95069.66;5002401;28;20025;-83
2023/01/07 08:58:08;;;;;;;227.88;11.35;;;;;;;9.45;100.00;95066.63;5002368;28;20052;-82
2023/01/07 09:00:34;;;;;;;93.55;7.10;;;;;;;9.12;100.00;95070.91;5019937;28;20033;-82
2023/01/07 09:03:01;;;;;;;109.97;6.45;;;;;;;9.86;100.00;95068.16;5002485;28;20026;-83
2023/01/07 09:05:29;;;;;;;178.13;10.35;;;;;;;9.18;100.00;95069.16;5002285;28;20029;-83
2023/01/07 09:07:55;;;;;;;193.15;11.23;;;;;;;8.94;100.00;95063.34;5002118;28;20025;-82
2023/01/07 09:10:21;;;;;;;17.10;4.90;;;;;;;10.12;100.00;95071.84;5002313;28;20493;-83
2023/01/07 09:12:47;;;;;;;41.80;4.55;;;;;;;10.07;100.00;95069.16;5002133;28;20025;-83
2023/01/07 09:15:12;;;;;;;24.88;3.75;;;;;;;10.51;100.00;95063.06;5002041;28;20053;-83
2023/01/07 09:17:41;;;;;;;25.70;4.18;;;;;;;10.27;100.00;95071.19;5002016;28;20026;-83
2023/01/07 09:20:07;;;;;;;67.57;5.57;;;;;;;10.04;100.00;95067.03;5019527;28;20442;-83
2023/01/07 09:22:34;;;;;;;109.95;6.53;;;;;;;9.68;100.00;95066.63;5001354;28;20026;-83
2023/01/07 09:25:04;;;;;;;85.55;7.45;;;;;;;9.97;100.00;95072.47;5019435;28;20439;-83
2023/01/07 09:27:30;;;;;;;182.32;11.07;;;;;;;10.33;100.00;95072.03;5001817;28;20026;-82
2023/01/07 09:29:57;;;;;;;191.50;11.30;;;;;;;10.32;100.00;95070.47;5001760;28;20047;-83
2023/01/07 09:32:27;;;;;;;49.53;5.85;;;;;;;10.72;100.00;95063.22;4985773;28;20030;-83
2023/01/07 09:34:52;;;;;;;150.48;9.05;;;;;;;10.50;100.00;95068.53;5018127;28;20033;-82
2023/01/07 09:37:18;;;;;;;60.78;5.82;;;;;;;10.64;100.00;95056.63;4985535;28;20030;-83
2023/01/07 09:39:43;;;;;;;75.40;6.88;;;;;;;11.02;100.00;95061.84;5019028;28;20108;-83
2023/01/07 09:42:35;;;;;;;292.95;16.00;;;;;;;10.84;100.00;95061.22;4985702;28;20046;-83
2023/01/07 09:45:04;;;;;;;186.57;15.02;;;;;;;10.67;100.00;95068.44;5019094;28;20025;-82
2023/01/07 09:47:32;;;;;;;13.27;7.00;;;;;;;11.18;100.00;95060.13;5018788;28;20026;-82
2023/01/07 09:50:25;;;;;;;37.65;7.15;;;;;;;11.28;100.00;95062.81;5001538;28;20840;-82
2023/01/07 09:52:53;;;;;;;52.53;8.18;;;;;;;11.72;100.00;95055.66;4974297;28;20467;-83
2023/01/07 09:55:25;;;;;;;34.30;5.13;;;;;;;11.13;100.00;95060.88;5001530;28;20446;-83
2023/01/07 09:57:50;;;;;;;146.98;10.98;;;;;;;10.35;100.00;95053.47;5001167;28;20379;-83
2023/01/07 10:00:19;;;;;;;9.98;4.20;;;;;;;11.02;100.00;95056.63;5001798;28;20030;-83
2023/01/07 10:03:18;;;;;;;84.22;7.40;;;;;;;10.08;100.00;95054.25;5001399;28;20041;-83
2023/01/07 10:06:23;;;;;;;6.03;4.25;;;;;;;11.54;100.00;95046.41;5017641;28;20029;-83
2023/01/07 10:09:01;;;;;;;23.67;6.07;;;;;;;10.97;100.00;95033.78;4923328;29;20174;-83
2023/01/07 10:11:48;;;;;;;15.48;6.00;;;;;;;10.93;100.00;95032.69;4978290;28;20044;-82
2023/01/07 10:14:29;;;;;;;10.02;5.82;;;;;;;11.11;100.00;95033.31;5000921;28;20029;-83
2023/01/07 10:17:04;;;;;;;12.38;6.15;;;;;;;11.45;100.00;95038.25;5001036;28;20029;-83
2023/01/07 10:19:47;;;;;;;12.02;7.03;;;;;;;12.13;100.00;95026.13;4985167;28;20026;-83
2023/01/07 10:22:21;;;;;;;9.77;5.57;;;;;;;12.29;100.00;95030.34;5000885;28;20030;-83
2023/01/07 10:24:51;;;;;;;9.13;5.70;;;;;;;11.96;100.00;95027.13;5018384;28;20328;-83
2023/01/07 10:27:27;;;;;;;9.65;6.10;;;;;;;12.43;100.00;95029.84;5000711;28;20172;-83
2023/01/07 10:29:55;;;;;;;8.90;5.47;;;;;;;12.24;100.00;95021.66;5000889;28;20060;-83
2023/01/07 10:32:24;;;;;;;8.90;5.38;;;;;;;12.35;100.00;95019.84;4984593;28;20026;-83
2023/01/07 10:34:55;;;;;;;10.15;5.75;;;;;;;12.49;100.00;95020.91;4983525;28;20383;-83
2023/01/07 10:37:32;;;;;;;10.13;6.63;;;;;;;12.46;100.00;95018.78;4985107;28;20049;-82
2023/01/07 10:40:35;;;;;;;11.23;6.15;;;;;;;12.87;100.00;95008.25;5000565;28;20021;-83
2023/01/07 10:43:13;;;;;;;8.48;5.55;;;;;;;13.31;100.00;95006.03;5000482;28;20316;-82
2023/01/07 10:45:54;;;;;;;9.55;5.25;;;;;;;12.42;100.00;95013.28;5000639;28;20029;-83
2023/01/07 10:48:48;;;;;;;11.90;5.72;;;;;;;12.01;100.00;95005.34;5000401;28;20032;-83
2023/01/07 10:51:22;;;;;;;12.77;7.65;;;;;;;12.15;100.00;94995.13;5004738;28;20117;-82
2023/01/07 10:53:59;;;;;;;;;;;;;;;13.68;100.00;94998.81;5018271;28;20025;-83
2023/01/07 10:56:31;;;;;;;9.23;5.40;;;;;;;13.56;100.00;94999.16;5000198;28;19909;-83
2023/01/07 10:58:56;;;;;;;10.27;5.78;;;;;;;12.49;100.00;95005.16;5000135;28;20025;-83
2023/01/07 11:01:28;;;;;;;10.07;5.68;;;;;;;12.99;100.00;94994.03;5017633;28;20026;-84
2023/01/07 11:03:55;;;;;;;9.82;5.78;;;;;;;13.45;100.00;94998.41;5017580;28;20022;-83
2023/01/07 11:06:30;;;;;;;9.40;5.53;;;;;;;13.05;100.00;94987.69;4983969;28;20022;-83
2023/01/07 11:08:55;;;;;;;11.00;6.45;;;;;;;13.34;100.00;94989.75;5025508;28;20032;-83
2023/01/07 11:11:22;;;;;;;14.38;9.02;;;;;;;13.48;95.82;94984.69;5019757;28;20128;-83
2023/01/07 11:14:03;;;;;;;9.77;6.22;;;;;;;13.48;93.23;94989.97;5003451;28;20083;-84
2023/01/07 11:16:35;;;;;;;11.93;6.35;;;;;;;13.04;100.00;94990.59;5019373;28;20129;-83
2023/01/07 11:19:06;;;;;;;10.10;5.72;;;;;;;13.22;100.00;94984.00;4999908;28;20032;-83
2023/01/07 11:21:39;;;;;;;10.48;5.93;;;;;;;13.27;100.00;94976.88;4999639;28;20042;-83
2023/01/07 11:24:33;;;;;;;15.45;9.75;;;;;;;13.37;96.89;94976.03;4989800;28;20073;-83